createdAt,value
2022-12-31T00:00:42.962Z,100319.91
2022-12-31T00:03:09.281Z,100312.63
2022-12-31T00:05:35.472Z,100283.34
2022-12-31T00:08:01.692Z,100315.59
2022-12-31T00:10:27.958Z,100321.44
2022-12-31T00:12:54.096Z,100311.91
2022-12-31T00:15:20.268Z,100317.56
2022-12-31T00:17:46.423Z,100325.00
2022-12-31T00:20:12.600Z,100330.44
2022-12-31T00:22:38.807Z,100320.16
2022-12-31T00:25:04.934Z,100320.97
2022-12-31T00:27:31.122Z,100325.38
2022-12-31T00:30:04.123Z,100326.47
2022-12-31T00:32:30.781Z,100334.31
2022-12-31T00:34:56.936Z,100335.41
2022-12-31T00:37:23.154Z,100333.28
2022-12-31T00:39:49.299Z,100338.03
2022-12-31T00:42:15.505Z,100328.41
2022-12-31T00:44:41.667Z,100339.72
2022-12-31T00:47:07.831Z,100345.06
2022-12-31T00:49:33.969Z,100340.16
2022-12-31T00:52:00.160Z,100345.06
2022-12-31T00:54:26.273Z,100346.38
2022-12-31T00:56:52.454Z,100354.81
2022-12-31T00:59:18.667Z,100359.03
2022-12-31T01:01:44.909Z,100363.50
2022-12-31T01:04:11.157Z,100363.22
2022-12-31T01:06:37.391Z,100354.28
2022-12-31T01:09:03.568Z,100359.19
2022-12-31T01:11:29.778Z,100358.34
2022-12-31T01:13:55.952Z,100354.38
2022-12-31T01:16:22.108Z,100344.41
2022-12-31T01:18:48.581Z,100353.91
2022-12-31T01:21:14.775Z,100358.06
2022-12-31T01:23:40.955Z,100350.84
2022-12-31T01:26:07.078Z,100353.41
2022-12-31T01:28:33.285Z,100362.72
2022-12-31T01:30:59.496Z,100359.34
2022-12-31T01:33:25.736Z,100367.31
2022-12-31T01:35:51.861Z,100362.16
2022-12-31T01:38:19.076Z,100380.97
2022-12-31T01:40:45.210Z,100375.97
2022-12-31T01:43:11.369Z,100389.78
2022-12-31T01:45:37.552Z,100391.03
2022-12-31T01:48:03.679Z,100380.84
2022-12-31T01:50:29.886Z,100390.13
2022-12-31T01:52:56.019Z,100407.06
2022-12-31T01:55:22.192Z,100403.97
2022-12-31T01:57:48.331Z,100402.59
2022-12-31T02:00:14.483Z,100390.34
2022-12-31T02:02:40.775Z,100396.50
2022-12-31T02:05:07.044Z,100399.88
2022-12-31T02:07:33.175Z,100402.88
2022-12-31T02:09:59.385Z,100404.63
2022-12-31T02:12:25.588Z,100406.16
2022-12-31T02:14:51.789Z,100414.59
2022-12-31T02:17:17.999Z,100406.97
2022-12-31T02:19:44.173Z,100409.69
2022-12-31T02:22:10.379Z,100391.44
2022-12-31T02:24:36.544Z,100393.59
2022-12-31T02:27:02.715Z,100411.28
2022-12-31T02:29:28.888Z,100420.31
2022-12-31T02:31:55.048Z,100405.69
2022-12-31T02:34:21.227Z,100407.56
2022-12-31T02:36:47.392Z,100412.63
2022-12-31T02:39:13.507Z,100422.47
2022-12-31T02:41:39.673Z,100431.50
2022-12-31T02:44:05.835Z,100437.81
2022-12-31T02:46:32.129Z,100433.13
2022-12-31T02:48:58.314Z,100443.16
2022-12-31T02:51:24.474Z,100442.75
2022-12-31T02:53:50.632Z,100424.13
2022-12-31T02:56:16.805Z,100426.84
2022-12-31T02:58:43.036Z,100439.78
2022-12-31T03:01:09.295Z,100457.75
2022-12-31T03:03:35.474Z,100463.97
2022-12-31T03:06:01.640Z,100453.56
2022-12-31T03:08:27.823Z,100452.59
2022-12-31T03:10:53.946Z,100440.72
2022-12-31T03:13:20.096Z,100451.59
2022-12-31T03:15:46.234Z,100452.53
2022-12-31T03:18:12.458Z,100453.09
2022-12-31T03:20:38.623Z,100453.75
2022-12-31T03:23:04.793Z,100457.22
2022-12-31T03:25:30.922Z,100456.72
2022-12-31T03:27:57.115Z,100456.53
2022-12-31T03:30:23.308Z,100448.41
2022-12-31T03:32:49.497Z,100453.75
2022-12-31T03:35:17.125Z,100445.19
2022-12-31T03:37:43.251Z,100446.63
2022-12-31T03:40:09.404Z,100450.44
2022-12-31T03:42:35.550Z,100450.44
2022-12-31T03:45:01.753Z,100441.50
2022-12-31T03:47:27.888Z,100443.00
2022-12-31T03:49:54.073Z,100439.63
2022-12-31T03:52:20.280Z,100439.91
2022-12-31T03:54:46.470Z,100435.56
2022-12-31T03:57:12.635Z,100445.69
2022-12-31T03:59:40.191Z,100446.44
2022-12-31T04:02:06.460Z,100440.25
2022-12-31T04:04:32.700Z,100438.56
2022-12-31T04:06:58.812Z,100444.75
2022-12-31T04:09:25.000Z,100446.09
2022-12-31T04:11:51.191Z,100446.19
2022-12-31T04:14:17.353Z,100440.44
2022-12-31T04:16:43.548Z,100444.38
2022-12-31T04:19:09.803Z,100442.41
2022-12-31T04:21:35.926Z,100443.91
2022-12-31T04:24:02.072Z,100442.41
2022-12-31T04:26:28.205Z,100447.00
2022-12-31T04:28:54.352Z,100439.97
2022-12-31T04:31:20.534Z,100451.19
2022-12-31T04:33:46.723Z,100457.19
2022-12-31T04:36:12.855Z,100467.13
2022-12-31T04:38:39.021Z,100471.72
2022-12-31T04:41:05.170Z,100468.91
2022-12-31T04:43:31.295Z,100467.31
2022-12-31T04:45:57.540Z,100470.31
2022-12-31T04:48:23.754Z,100472.56
2022-12-31T04:50:49.912Z,100476.72
2022-12-31T04:53:16.104Z,100485.97
2022-12-31T04:55:42.241Z,100481.56
2022-12-31T04:58:08.441Z,100486.53
2022-12-31T05:00:34.644Z,100476.13
2022-12-31T05:03:00.881Z,100479.31
2022-12-31T05:05:27.121Z,100480.16
2022-12-31T05:07:53.298Z,100478.34
2022-12-31T05:10:19.513Z,100485.66
2022-12-31T05:12:45.668Z,100498.59
2022-12-31T05:15:11.808Z,100500.66
2022-12-31T05:17:38.008Z,100505.56
2022-12-31T05:20:04.132Z,100507.69
2022-12-31T05:22:30.356Z,100502.13
2022-12-31T05:24:56.501Z,100492.47
2022-12-31T05:27:22.687Z,100498.38
2022-12-31T05:29:48.857Z,100489.38
2022-12-31T05:32:14.986Z,100507.47
2022-12-31T05:34:41.182Z,100506.41
2022-12-31T05:37:09.285Z,100510.63
2022-12-31T05:39:35.400Z,100510.19
2022-12-31T05:42:01.593Z,100510.69
2022-12-31T05:44:27.750Z,100526.06
2022-12-31T05:46:53.882Z,100527.53
2022-12-31T05:49:20.071Z,100528.78
2022-12-31T05:51:46.246Z,100542.00
2022-12-31T05:54:12.426Z,100550.34
2022-12-31T05:56:38.598Z,100546.69
2022-12-31T05:59:04.789Z,100539.28
2022-12-31T06:01:31.874Z,100542.00
2022-12-31T06:03:58.194Z,100540.97
2022-12-31T06:06:24.341Z,100547.06
2022-12-31T06:08:50.532Z,100568.31
2022-12-31T06:11:16.687Z,100555.09
2022-12-31T06:13:42.824Z,100565.09
2022-12-31T06:16:09.091Z,100560.44
2022-12-31T06:18:35.389Z,100566.22
2022-12-31T06:21:01.569Z,100571.47
2022-12-31T06:23:27.809Z,100561.91
2022-12-31T06:25:53.943Z,100566.41
2022-12-31T06:28:20.689Z,100575.75
2022-12-31T06:30:47.033Z,100571.44
2022-12-31T06:33:13.418Z,100556.03
2022-12-31T06:35:39.560Z,100564.88
2022-12-31T06:38:05.739Z,100557.03
2022-12-31T06:40:31.927Z,100565.69
2022-12-31T06:43:00.357Z,100570.16
2022-12-31T06:45:26.723Z,100571.66
2022-12-31T06:47:52.842Z,100557.19
2022-12-31T06:50:19.053Z,100553.38
2022-12-31T06:52:45.177Z,100564.31
2022-12-31T06:55:11.350Z,100565.84
2022-12-31T06:57:37.566Z,100565.41
2022-12-31T07:00:03.743Z,100572.53
2022-12-31T07:02:30.034Z,100589.13
2022-12-31T07:04:56.238Z,100577.13
2022-12-31T07:07:22.397Z,100584.28
2022-12-31T07:09:48.523Z,100575.84
2022-12-31T07:12:14.651Z,100572.44
2022-12-31T07:14:40.829Z,100576.41
2022-12-31T07:17:06.998Z,100571.97
2022-12-31T07:19:33.182Z,100572.84
2022-12-31T07:21:59.323Z,100577.06
2022-12-31T07:24:25.483Z,100581.22
2022-12-31T07:26:56.517Z,100582.97
2022-12-31T07:29:23.247Z,100573.63
2022-12-31T07:31:49.392Z,100575.31
2022-12-31T07:34:15.571Z,100581.56
2022-12-31T07:36:41.795Z,100580.00
2022-12-31T07:39:07.957Z,100591.41
2022-12-31T07:41:34.171Z,100586.38
2022-12-31T07:44:00.301Z,100590.47
2022-12-31T07:46:26.623Z,100599.69
2022-12-31T07:48:53.162Z,100610.38
2022-12-31T07:51:19.403Z,100611.13
2022-12-31T07:53:45.572Z,100611.78
2022-12-31T07:56:11.788Z,100609.41
2022-12-31T07:58:38.005Z,100608.09
2022-12-31T08:01:04.314Z,100608.75
2022-12-31T08:03:30.542Z,100608.25
2022-12-31T08:05:56.705Z,100619.16
2022-12-31T08:08:22.911Z,100619.03
2022-12-31T08:10:49.030Z,100631.34
2022-12-31T08:13:15.158Z,100637.53
2022-12-31T08:15:41.366Z,100641.09
2022-12-31T08:18:07.553Z,100652.00
2022-12-31T08:20:33.691Z,100636.97
2022-12-31T08:22:59.899Z,100650.66
2022-12-31T08:25:26.032Z,100641.22
2022-12-31T08:27:52.200Z,100641.88
2022-12-31T08:30:18.352Z,100643.34
2022-12-31T08:32:44.527Z,100659.09
2022-12-31T08:35:10.740Z,100647.13
2022-12-31T08:37:36.922Z,100647.84
2022-12-31T08:40:03.059Z,100655.72
2022-12-31T08:42:29.230Z,100660.25
2022-12-31T08:44:55.389Z,100649.03
2022-12-31T08:47:21.531Z,100650.19
2022-12-31T08:49:47.695Z,100639.81
2022-12-31T08:52:13.858Z,100648.78
2022-12-31T08:54:40.057Z,100665.25
2022-12-31T08:57:06.284Z,100661.09
2022-12-31T08:59:32.435Z,100664.06
2022-12-31T09:01:58.663Z,100665.47
2022-12-31T09:04:24.986Z,100658.44
2022-12-31T09:06:51.274Z,100671.19
2022-12-31T09:09:17.500Z,100671.72
2022-12-31T09:11:43.689Z,100672.13
2022-12-31T09:14:09.879Z,100678.53
2022-12-31T09:16:36.060Z,100664.78
2022-12-31T09:19:02.216Z,100669.19
2022-12-31T09:21:28.359Z,100677.75
2022-12-31T09:23:54.501Z,100685.16
2022-12-31T09:26:22.730Z,100677.16
2022-12-31T09:28:48.914Z,100686.84
2022-12-31T09:31:15.139Z,100683.56
2022-12-31T09:33:41.351Z,100697.53
2022-12-31T09:36:07.472Z,100693.78
2022-12-31T09:38:33.612Z,100694.84
2022-12-31T09:40:59.779Z,100690.34
2022-12-31T09:43:25.936Z,100684.38
2022-12-31T09:45:52.155Z,100683.41
2022-12-31T09:48:18.369Z,100678.31
2022-12-31T09:50:44.510Z,100680.88
2022-12-31T09:53:10.666Z,100672.78
2022-12-31T09:55:36.859Z,100670.38
2022-12-31T09:58:03.052Z,100671.44
2022-12-31T10:00:29.197Z,100664.69
2022-12-31T10:02:55.395Z,100664.38
2022-12-31T10:05:21.558Z,100673.88
2022-12-31T10:07:52.453Z,100672.31
2022-12-31T10:10:19.855Z,100665.34
2022-12-31T10:12:46.064Z,100659.22
2022-12-31T10:15:12.287Z,100659.88
2022-12-31T10:17:38.469Z,100651.91
2022-12-31T10:20:04.633Z,100653.09
2022-12-31T10:22:30.789Z,100648.81
2022-12-31T10:24:56.935Z,100647.59
2022-12-31T10:27:23.179Z,100653.00
2022-12-31T10:29:49.316Z,100648.47
2022-12-31T10:32:15.450Z,100653.53
2022-12-31T10:34:41.613Z,100647.88
2022-12-31T10:37:07.743Z,100644.88
2022-12-31T10:39:33.911Z,100649.06
2022-12-31T10:42:00.101Z,100646.91
2022-12-31T10:44:26.250Z,100645.94
2022-12-31T10:46:52.494Z,100642.47
2022-12-31T10:49:18.641Z,100636.50
2022-12-31T10:51:44.765Z,100638.88
2022-12-31T10:54:10.906Z,100636.00
2022-12-31T10:56:37.064Z,100620.00
2022-12-31T10:59:03.218Z,100627.16
2022-12-31T11:01:29.408Z,100625.50
2022-12-31T11:03:55.605Z,100626.03
2022-12-31T11:06:21.771Z,100630.88
2022-12-31T11:08:47.989Z,100633.66
2022-12-31T11:11:14.156Z,100635.09
2022-12-31T11:13:40.291Z,100637.47
2022-12-31T11:16:06.469Z,100640.69
2022-12-31T11:18:32.688Z,100641.56
2022-12-31T11:20:58.874Z,100639.28
2022-12-31T11:23:25.053Z,100632.00
2022-12-31T11:25:51.216Z,100633.19
2022-12-31T11:28:17.343Z,100645.41
2022-12-31T11:30:43.506Z,100634.94
2022-12-31T11:33:09.745Z,100631.88
2022-12-31T11:35:35.953Z,100626.72
2022-12-31T11:38:02.105Z,100624.66
2022-12-31T11:40:28.294Z,100620.22
2022-12-31T11:42:54.496Z,100610.69
2022-12-31T11:45:20.681Z,100611.81
2022-12-31T11:48:28.049Z,100603.19
2022-12-31T11:50:33.031Z,100608.66
2022-12-31T11:52:59.215Z,100610.28
2022-12-31T11:55:25.363Z,100600.69
2022-12-31T11:57:51.540Z,100602.13
2022-12-31T12:00:17.696Z,100602.88
2022-12-31T12:02:43.836Z,100608.75
2022-12-31T12:05:11.369Z,100599.16
2022-12-31T12:07:37.780Z,100591.81
2022-12-31T12:10:03.937Z,100592.84
2022-12-31T12:12:30.087Z,100582.72
2022-12-31T12:14:56.322Z,100585.38
2022-12-31T12:17:22.475Z,100590.03
2022-12-31T12:19:48.622Z,100591.84
2022-12-31T12:22:14.781Z,100592.66
2022-12-31T12:24:40.978Z,100591.00
2022-12-31T12:27:07.151Z,100588.34
2022-12-31T12:29:33.366Z,100582.13
2022-12-31T12:31:59.565Z,100592.56
2022-12-31T12:34:25.731Z,100591.59
2022-12-31T12:36:51.918Z,100590.41
2022-12-31T12:39:18.039Z,100593.41
2022-12-31T12:41:44.227Z,100596.28
2022-12-31T12:44:10.364Z,100597.38
2022-12-31T12:46:36.527Z,100594.84
2022-12-31T12:49:02.713Z,100583.06
2022-12-31T12:51:28.850Z,100571.78
2022-12-31T12:53:55.050Z,100589.47
2022-12-31T12:56:21.179Z,100591.50
2022-12-31T12:58:47.361Z,100579.94
2022-12-31T13:01:13.670Z,100579.72
2022-12-31T13:03:53.976Z,100580.34
2022-12-31T13:06:25.972Z,100577.94
2022-12-31T13:08:52.150Z,100571.78
2022-12-31T13:11:18.428Z,100566.63
2022-12-31T13:13:44.576Z,100568.22
2022-12-31T13:16:10.813Z,100562.81
2022-12-31T13:18:37.003Z,100563.97
2022-12-31T13:21:03.156Z,100568.47
2022-12-31T13:23:30.144Z,100561.13
2022-12-31T13:25:58.640Z,100556.69
2022-12-31T13:28:24.817Z,100559.78
2022-12-31T13:30:51.070Z,100560.41
2022-12-31T13:33:17.269Z,100562.69
2022-12-31T13:35:43.405Z,100549.22
2022-12-31T13:38:09.558Z,100549.34
2022-12-31T13:40:35.696Z,100564.00
2022-12-31T13:43:01.903Z,100558.59
2022-12-31T13:45:28.057Z,100554.41
2022-12-31T13:47:54.219Z,100560.06
2022-12-31T13:50:20.403Z,100552.59
2022-12-31T13:52:46.561Z,100545.03
2022-12-31T13:55:12.727Z,100553.44
2022-12-31T13:57:38.899Z,100553.38
2022-12-31T14:00:05.111Z,100547.25
2022-12-31T14:02:31.440Z,100549.78
2022-12-31T14:04:57.703Z,100542.56
2022-12-31T14:07:26.715Z,100527.69
2022-12-31T14:09:56.940Z,100528.06
2022-12-31T14:12:23.189Z,100534.03
2022-12-31T14:14:49.481Z,100543.50
2022-12-31T14:17:15.633Z,100531.16
2022-12-31T14:19:41.781Z,100540.09
2022-12-31T14:22:08.028Z,100547.06
2022-12-31T14:24:34.254Z,100551.28
2022-12-31T14:27:00.389Z,100554.41
2022-12-31T14:29:26.567Z,100547.78
2022-12-31T14:31:52.793Z,100548.03
2022-12-31T14:34:19.004Z,100547.75
2022-12-31T14:36:45.204Z,100556.84
2022-12-31T14:39:11.377Z,100558.19
2022-12-31T14:41:37.561Z,100563.06
2022-12-31T14:44:03.762Z,100564.34
2022-12-31T14:46:29.919Z,100564.25
2022-12-31T14:48:56.115Z,100563.06
2022-12-31T14:51:22.315Z,100568.50
2022-12-31T14:53:48.515Z,100578.16
2022-12-31T14:56:14.732Z,100582.59
2022-12-31T14:58:40.850Z,100574.38
2022-12-31T15:01:07.176Z,100571.97
2022-12-31T15:03:33.371Z,100564.53
2022-12-31T15:05:59.494Z,100563.06
2022-12-31T15:08:25.711Z,100563.69
2022-12-31T15:10:51.874Z,100564.78
2022-12-31T15:13:18.040Z,100564.38
2022-12-31T15:15:44.219Z,100568.78
2022-12-31T15:18:10.415Z,100576.72
2022-12-31T15:20:36.592Z,100571.75
2022-12-31T15:23:02.773Z,100569.69
2022-12-31T15:25:28.953Z,100564.41
2022-12-31T15:27:55.081Z,100573.38
2022-12-31T15:30:21.378Z,100574.13
2022-12-31T15:32:47.558Z,100582.25
2022-12-31T15:35:13.694Z,100583.78
2022-12-31T15:37:39.879Z,100589.94
2022-12-31T15:40:06.053Z,100594.56
2022-12-31T15:42:42.427Z,100593.88
2022-12-31T15:45:12.004Z,100598.00
2022-12-31T15:47:38.204Z,100598.59
2022-12-31T15:50:04.364Z,100606.13
2022-12-31T15:52:30.536Z,100601.09
2022-12-31T15:54:56.705Z,100606.06
2022-12-31T15:57:22.933Z,100600.63
2022-12-31T15:59:49.183Z,100603.44
2022-12-31T16:02:15.424Z,100612.81
2022-12-31T16:04:41.773Z,100612.06
2022-12-31T16:07:07.942Z,100622.84
2022-12-31T16:09:34.116Z,100636.81
2022-12-31T16:12:00.352Z,100621.63
2022-12-31T16:14:26.569Z,100622.00
2022-12-31T16:16:52.756Z,100615.94
2022-12-31T16:19:18.877Z,100619.56
2022-12-31T16:21:45.025Z,100628.78
2022-12-31T16:24:11.196Z,100628.09
2022-12-31T16:26:37.365Z,100634.78
2022-12-31T16:29:03.578Z,100632.44
2022-12-31T16:31:29.778Z,100638.78
2022-12-31T16:33:55.966Z,100643.13
2022-12-31T16:36:22.143Z,100643.19
2022-12-31T16:38:48.347Z,100644.59
2022-12-31T16:41:14.507Z,100643.19
2022-12-31T16:43:40.687Z,100651.63
2022-12-31T16:46:06.889Z,100650.22
2022-12-31T16:48:33.125Z,100655.41
2022-12-31T16:50:59.320Z,100647.50
2022-12-31T16:53:25.527Z,100651.53
2022-12-31T16:55:51.740Z,100645.84
2022-12-31T16:58:17.898Z,100648.25
2022-12-31T17:00:44.066Z,100638.13
2022-12-31T17:03:10.291Z,100639.81
2022-12-31T17:05:36.490Z,100643.69
2022-12-31T17:08:02.662Z,100648.47
2022-12-31T17:10:28.775Z,100655.47
2022-12-31T17:15:41.389Z,100639.47
2022-12-31T17:18:07.684Z,100631.03
2022-12-31T17:20:33.826Z,100637.19
2022-12-31T17:22:59.995Z,100643.94
2022-12-31T17:25:26.189Z,100652.19
2022-12-31T17:27:52.318Z,100646.69
2022-12-31T17:30:18.484Z,100645.44
2022-12-31T17:32:44.661Z,100646.19
2022-12-31T17:35:10.860Z,100645.22
2022-12-31T17:37:37.032Z,100644.31
2022-12-31T17:40:32.273Z,100643.28
2022-12-31T17:42:49.291Z,100640.66
2022-12-31T17:45:15.428Z,100645.28
2022-12-31T17:47:41.619Z,100642.09
2022-12-31T17:50:07.761Z,100646.59
2022-12-31T17:52:33.888Z,100648.81
2022-12-31T17:55:00.056Z,100658.59
2022-12-31T17:57:26.252Z,100661.69
2022-12-31T17:59:52.553Z,100659.53
2022-12-31T18:02:18.845Z,100653.41
2022-12-31T18:04:45.019Z,100650.69
2022-12-31T18:07:11.200Z,100650.84
2022-12-31T18:09:37.363Z,100659.50
2022-12-31T18:12:03.559Z,100660.97
2022-12-31T18:14:29.692Z,100668.97
2022-12-31T18:16:55.887Z,100660.63
2022-12-31T18:19:54.188Z,100672.28
2022-12-31T18:22:08.211Z,100665.38
2022-12-31T18:24:34.411Z,100662.84
2022-12-31T18:27:00.556Z,100666.34
2022-12-31T18:29:26.748Z,100673.56
2022-12-31T18:31:53.107Z,100665.44
2022-12-31T18:34:19.251Z,100677.09
2022-12-31T18:36:45.416Z,100680.41
2022-12-31T18:39:11.608Z,100677.84
2022-12-31T18:41:37.765Z,100678.31
2022-12-31T18:44:04.013Z,100690.75
2022-12-31T18:46:30.302Z,100687.56
2022-12-31T18:48:56.467Z,100690.09
2022-12-31T18:51:29.267Z,100687.94
2022-12-31T18:53:57.380Z,100699.84
2022-12-31T18:56:23.554Z,100711.59
2022-12-31T18:58:49.707Z,100706.34
2022-12-31T19:01:15.974Z,100707.38
2022-12-31T19:03:42.239Z,100702.13
2022-12-31T19:06:08.391Z,100700.78
2022-12-31T19:08:34.573Z,100696.50
2022-12-31T19:11:00.734Z,100703.19
2022-12-31T19:13:26.877Z,100700.31
2022-12-31T19:15:53.049Z,100704.19
2022-12-31T19:18:19.258Z,100703.31
2022-12-31T19:20:45.392Z,100704.00
2022-12-31T19:23:11.517Z,100697.72
2022-12-31T19:25:37.653Z,100705.94
2022-12-31T19:28:03.832Z,100703.44
2022-12-31T19:30:30.075Z,100704.41
2022-12-31T19:32:56.221Z,100715.00
2022-12-31T19:35:22.338Z,100705.34
2022-12-31T19:37:48.530Z,100701.31
2022-12-31T19:40:14.686Z,100696.63
2022-12-31T19:42:40.833Z,100705.00
2022-12-31T19:45:06.984Z,100709.16
2022-12-31T19:47:33.215Z,100707.41
2022-12-31T19:50:00.456Z,100707.41
2022-12-31T19:52:26.639Z,100701.13
2022-12-31T19:54:55.174Z,100706.00
2022-12-31T19:57:21.372Z,100716.16
2022-12-31T19:59:47.504Z,100707.53
2022-12-31T20:02:13.793Z,100707.34
2022-12-31T20:04:40.131Z,100708.09
2022-12-31T20:07:06.270Z,100702.94
2022-12-31T20:09:32.494Z,100710.34
2022-12-31T20:11:58.682Z,100703.03
2022-12-31T20:14:24.858Z,100707.72
2022-12-31T20:16:51.075Z,100710.81
2022-12-31T20:19:17.277Z,100702.78
2022-12-31T20:21:43.441Z,100708.03
2022-12-31T20:24:09.628Z,100710.16
2022-12-31T20:26:35.808Z,100706.69
2022-12-31T20:29:01.994Z,100714.00
2022-12-31T20:31:28.125Z,100708.75
2022-12-31T20:33:54.373Z,100711.16
2022-12-31T20:36:20.587Z,100714.34
2022-12-31T20:38:46.746Z,100707.81
2022-12-31T20:41:12.911Z,100716.34
2022-12-31T20:43:39.054Z,100716.44
2022-12-31T20:46:09.342Z,100711.19
2022-12-31T20:48:38.745Z,100723.72
2022-12-31T20:51:04.888Z,100723.22
2022-12-31T20:53:31.042Z,100728.56
2022-12-31T20:55:57.187Z,100719.59
2022-12-31T20:58:23.377Z,100714.63
2022-12-31T21:00:49.499Z,100714.94
2022-12-31T21:03:53.827Z,100720.78
2022-12-31T21:06:03.176Z,100725.78
2022-12-31T21:08:34.595Z,100725.59
2022-12-31T21:11:01.257Z,100725.44
2022-12-31T21:13:27.447Z,100729.66
2022-12-31T21:15:53.617Z,100719.91
2022-12-31T21:18:19.844Z,100720.41
2022-12-31T21:20:46.086Z,100725.31
2022-12-31T21:23:12.279Z,100723.09
2022-12-31T21:25:38.496Z,100734.97
2022-12-31T21:28:04.615Z,100738.88
2022-12-31T21:30:30.826Z,100736.13
2022-12-31T21:32:57.015Z,100733.72
2022-12-31T21:38:09.276Z,100735.00
2022-12-31T21:40:35.453Z,100742.66
2022-12-31T21:43:01.582Z,100743.78
2022-12-31T21:45:27.765Z,100743.22
2022-12-31T21:47:54.000Z,100745.13
2022-12-31T21:50:20.157Z,100749.50
2022-12-31T21:52:46.356Z,100742.69
2022-12-31T21:55:12.518Z,100739.66
2022-12-31T21:58:07.237Z,100739.03
2022-12-31T22:00:41.861Z,100736.81
2022-12-31T22:03:09.103Z,100735.53
2022-12-31T22:05:35.414Z,100741.44
2022-12-31T22:08:01.541Z,100743.19
2022-12-31T22:10:27.747Z,100749.59
2022-12-31T22:12:54.028Z,100745.31
2022-12-31T22:15:20.212Z,100752.84
2022-12-31T22:17:46.389Z,100750.41
2022-12-31T22:20:28.682Z,100753.53
2022-12-31T22:22:55.177Z,100762.72
2022-12-31T22:25:21.372Z,100766.75
2022-12-31T22:28:11.462Z,100765.91
2022-12-31T22:30:33.893Z,100771.34
2022-12-31T22:33:00.087Z,100767.38
2022-12-31T22:35:26.303Z,100769.75
2022-12-31T22:37:57.963Z,100768.72
2022-12-31T22:40:26.540Z,100781.31
2022-12-31T22:42:52.701Z,100784.63
2022-12-31T22:45:18.962Z,100789.91
2022-12-31T22:47:45.215Z,100785.81
2022-12-31T22:50:11.347Z,100785.91
2022-12-31T22:52:37.497Z,100781.59
2022-12-31T22:55:03.654Z,100785.34
2022-12-31T22:57:29.785Z,100794.69
2022-12-31T22:59:55.966Z,100789.19
2022-12-31T23:02:22.188Z,100789.88
2022-12-31T23:04:48.366Z,100796.53
2022-12-31T23:07:14.552Z,100805.34
2022-12-31T23:09:40.705Z,100806.00
2022-12-31T23:12:06.834Z,100801.00
2022-12-31T23:14:33.079Z,100804.69
2022-12-31T23:16:59.441Z,100802.31
2022-12-31T23:19:45.607Z,100810.81
2022-12-31T23:22:11.821Z,100807.88
2022-12-31T23:24:38.007Z,100807.56
2022-12-31T23:27:04.183Z,100803.16
2022-12-31T23:29:30.384Z,100809.13
2022-12-31T23:31:56.568Z,100802.19
2022-12-31T23:34:22.737Z,100799.09
2022-12-31T23:36:48.917Z,100804.50
2022-12-31T23:39:15.078Z,100798.91
2022-12-31T23:41:41.225Z,100794.19
2022-12-31T23:44:07.360Z,100801.72
2022-12-31T23:46:33.586Z,100794.69
2022-12-31T23:48:59.789Z,100785.56
2022-12-31T23:51:25.960Z,100789.47
2022-12-31T23:53:52.195Z,100792.00
2022-12-31T23:56:23.299Z,100792.59
2022-12-31T23:58:50.291Z,100780.91
